Meteorología y climatología de Navarra
Datos de la estación - Meteo Navarra

Estación de Tafalla GN

Altitud 430 m.


Datos desde el 03/12/2019 hasta el 04/12/2019 en horario solar
Los datos son PROVISIONALES

Anterior Página 1 de 1 Siguiente Descargar: Formato para Excel 2000 o superior   Formato csv   Formato para OpenOffice Calc
Fecha Temperatura Humedad relativa Radiación global Insolación Precipitación Vel. viento 10 m Vel. viento 10 m Dir. viento 10 m
ºC % W/m² s l/m² m/s km/h º
03/12/2019 0:00 4.4 76 0.0 0 0.0 5.1 18.2 311
03/12/2019 0:10 4.3 77 0.0 0 0.0 5.2 18.6 317
03/12/2019 0:20 4.2 79 0.0 0 0.0 5.7 20.7 319
03/12/2019 0:30 4.1 81 0.0 0 0.0 4.9 17.8 319
03/12/2019 0:40 4.0 82 0.0 0 0.0 4.7 16.9 319
03/12/2019 0:50 3.9 82 0.0 0 0.0 4.8 17.2 314
03/12/2019 1:00 3.9 81 0.0 0 0.0 4.7 17.0 313
03/12/2019 1:10 3.9 81 0.0 0 0.0 5.2 18.8 317
03/12/2019 1:20 3.8 80 0.0 0 0.0 4.5 16.1 320
03/12/2019 1:30 3.5 81 0.0 0 0.0 3.2 11.7 317
03/12/2019 1:40 3.4 82 0.0 0 0.0 3.9 13.9 311
03/12/2019 1:50 3.3 81 0.0 0 0.0 3.8 13.8 308
03/12/2019 2:00 3.2 81 0.0 0 0.0 3.9 14.1 313
03/12/2019 2:10 3.2 80 0.0 0 0.0 3.9 13.9 314
03/12/2019 2:20 3.1 80 0.0 0 0.0 4.1 14.7 313
03/12/2019 2:30 3.0 80 0.0 0 0.0 4.4 15.7 314
03/12/2019 2:40 3.0 80 0.0 0 0.0 4.9 17.5 312
03/12/2019 2:50 3.0 80 0.0 0 0.0 4.0 14.5 312
03/12/2019 3:00 2.9 80 0.0 0 0.0 4.5 16.1 315
03/12/2019 3:10 3.0 79 0.0 0 0.0 4.6 16.7 317
03/12/2019 3:20 3.0 79 0.0 0 0.0 3.6 13.0 308
03/12/2019 3:30 3.0 79 0.0 0 0.0 4.0 14.4 311
03/12/2019 3:40 3.0 79 0.0 0 0.0 3.6 13.0 312
03/12/2019 3:50 3.0 78 0.0 0 0.0 3.8 13.8 310
03/12/2019 4:00 3.0 79 0.0 0 0.0 3.5 12.6 313
03/12/2019 4:10 3.0 79 0.0 0 0.0 3.3 11.8 315
03/12/2019 4:20 3.0 79 0.0 0 0.0 3.4 12.2 313
03/12/2019 4:30 3.0 79 0.0 0 0.0 3.3 11.9 319
03/12/2019 4:40 3.2 79 0.0 0 0.0 4.3 15.6 324
03/12/2019 4:50 3.3 78 0.0 0 0.0 3.8 13.5 323
03/12/2019 5:00 3.2 79 0.0 0 0.0 4.1 14.8 326
03/12/2019 5:10 3.3 79 0.0 0 0.0 3.7 13.4 323
03/12/2019 5:20 3.3 80 0.0 0 0.0 3.9 14.1 320
03/12/2019 5:30 3.4 80 0.0 0 0.0 3.9 14.0 323
03/12/2019 5:40 3.3 80 0.0 0 0.0 3.4 12.2 320
03/12/2019 5:50 3.2 80 0.0 0 0.0 4.0 14.4 322
03/12/2019 6:00 3.0 81 0.0 0 0.0 3.5 12.5 322
03/12/2019 6:10 3.0 81 0.0 0 0.0 3.7 13.4 321
03/12/2019 6:20 3.0 81 0.0 0 0.0 3.1 11.1 318
03/12/2019 6:30 3.0 81 0.0 0 0.0 3.6 13.1 318
03/12/2019 6:40 2.9 81 0.0 0 0.0 3.5 12.5 316
03/12/2019 6:50 2.9 81 0.0 0 0.0 3.3 11.7 315
03/12/2019 7:00 2.9 81 0.0 0 0.0 3.8 13.8 314
03/12/2019 7:10 2.9 81 0.0 0 0.0 3.5 12.6 311
03/12/2019 7:20 2.9 81 0.0 0 0.0 3.4 12.2 311
03/12/2019 7:30 3.0 81 3.1 0 0.0 3.0 10.7 308
03/12/2019 7:40 2.9 81 25.2 122 0.0 2.8 10.2 303
03/12/2019 7:50 2.9 81 43.0 600 0.0 2.9 10.5 297
03/12/2019 8:00 3.0 81 63.7 600 0.0 2.4 8.6 300
03/12/2019 8:10 3.2 80 86.4 600 0.0 2.8 10.0 302
03/12/2019 8:20 3.5 79 110.1 600 0.0 2.9 10.3 306
03/12/2019 8:30 3.7 78 133.7 600 0.0 3.1 11.0 316
03/12/2019 8:40 4.0 77 158.7 600 0.0 3.1 11.0 317
03/12/2019 8:50 4.3 75 183.8 600 0.0 3.2 11.6 330
03/12/2019 9:00 4.6 74 208.9 600 0.0 4.0 14.5 328
03/12/2019 9:10 4.7 73 234.8 600 0.0 3.5 12.6 340
03/12/2019 9:20 4.9 72 260.0 600 0.0 3.7 13.2 349
03/12/2019 9:30 5.0 72 282.4 600 0.0 3.1 11.2 332
03/12/2019 9:40 5.2 71 304.1 600 0.0 3.2 11.4 348
03/12/2019 9:50 5.3 71 323.8 600 0.0 3.4 12.2 351
03/12/2019 10:00 5.3 71 341.4 600 0.0 3.6 13.1 344
03/12/2019 10:10 5.5 70 359.2 600 0.0 4.0 14.3 10
03/12/2019 10:20 5.6 70 375.5 600 0.0 3.8 13.6 2
03/12/2019 10:30 5.6 69 390.2 600 0.0 3.9 14.0 8
03/12/2019 10:40 5.9 69 402.4 600 0.0 2.9 10.4 349
03/12/2019 10:50 5.9 68 414.4 600 0.0 3.4 12.1 352
03/12/2019 11:00 5.9 69 425.3 600 0.0 4.0 14.5 335
03/12/2019 11:10 6.0 68 433.4 600 0.0 3.5 12.7 346
03/12/2019 11:20 6.3 68 440.0 600 0.0 2.8 10.2 9
03/12/2019 11:30 6.6 66 445.7 600 0.0 2.7 9.8 6
03/12/2019 11:40 6.5 66 449.7 600 0.0 3.1 11.2 343
03/12/2019 11:50 6.6 67 446.8 600 0.0 3.3 11.7 332
03/12/2019 12:00 6.6 66 453.4 600 0.0 2.6 9.2 358
03/12/2019 12:10 6.8 66 452.7 600 0.0 2.2 7.9 354
03/12/2019 12:20 7.0 65 466.2 600 0.0 2.3 8.4 1
03/12/2019 12:30 6.9 65 498.9 600 0.0 3.0 10.8 12
03/12/2019 12:40 7.2 65 500.8 600 0.0 2.2 7.7 343
03/12/2019 12:50 7.1 65 454.8 600 0.0 2.6 9.4 360
03/12/2019 13:00 7.0 65 349.0 436 0.0 2.6 9.2 19
03/12/2019 13:10 6.6 66 170.7 104 0.0 2.0 7.2 12
03/12/2019 13:20 6.8 66 316.8 430 0.0 1.6 5.8 14
03/12/2019 13:30 7.1 65 412.2 600 0.0 1.5 5.5 358
03/12/2019 13:40 7.1 65 392.5 600 0.0 2.3 8.1 277
03/12/2019 13:50 7.3 66 363.2 600 0.0 2.1 7.6 295
03/12/2019 14:00 7.3 66 341.9 600 0.0 2.7 9.8 310
03/12/2019 14:10 7.1 66 319.2 600 0.0 2.8 10.2 297
03/12/2019 14:20 7.1 67 296.6 600 0.0 3.5 12.5 286
03/12/2019 14:30 7.0 67 277.2 600 0.0 2.8 10.2 292
03/12/2019 14:40 7.0 67 255.3 600 0.0 3.2 11.4 290
03/12/2019 14:50 6.9 67 231.1 600 0.0 2.4 8.6 294
03/12/2019 15:00 6.9 67 208.0 600 0.0 2.3 8.2 311
03/12/2019 15:10 6.9 67 182.2 600 0.0 2.3 8.4 315
03/12/2019 15:20 6.7 67 158.3 600 0.0 2.6 9.3 316
03/12/2019 15:30 6.7 67 134.0 600 0.0 2.3 8.3 314
03/12/2019 15:40 6.5 67 110.4 600 0.0 2.4 8.5 314
03/12/2019 15:50 6.4 69 47.2 112 0.0 1.9 6.9 318
03/12/2019 16:00 5.9 71 28.2 0 0.0 1.7 6.2 326
03/12/2019 16:10 5.6 73 22.0 0 0.0 1.5 5.4 321
03/12/2019 16:20 5.2 75 7.4 0 0.0 1.4 5.0 325
03/12/2019 16:30 4.8 76 0.0 0 0.0 1.3 4.7 334
03/12/2019 16:40 4.4 79 0.0 0 0.0 1.3 4.6 331
03/12/2019 16:50 3.9 82 0.0 0 0.0 1.4 5.0 342
03/12/2019 17:00 3.8 82 0.0 0 0.0 1.2 4.3 346
03/12/2019 17:10 3.8 82 0.0 0 0.0 1.7 6.0 17
03/12/2019 17:20 4.2 80 0.0 0 0.0 2.0 7.3 10
03/12/2019 17:30 4.3 78 0.0 0 0.0 2.6 9.5 15
03/12/2019 17:40 4.1 79 0.0 0 0.0 2.7 9.8 15
03/12/2019 17:50 3.8 81 0.0 0 0.0 2.8 10.2 12
03/12/2019 18:00 3.6 82 0.0 0 0.0 3.2 11.7 8
03/12/2019 18:10 3.4 82 0.0 0 0.0 2.9 10.4 4
03/12/2019 18:20 3.4 83 0.0 0 0.0 3.3 11.7 10
03/12/2019 18:30 3.3 82 0.0 0 0.0 2.8 10.1 8
03/12/2019 18:40 3.3 82 0.0 0 0.0 2.5 9.0 5
03/12/2019 18:50 3.2 83 0.0 0 0.0 3.6 13.0 16
03/12/2019 19:00 3.1 83 0.0 0 0.0 3.6 13.1 14
03/12/2019 19:10 3.0 84 0.0 0 0.0 2.8 10.1 5
03/12/2019 19:20 3.0 84 0.0 0 0.0 3.5 12.7 18
03/12/2019 19:30 2.6 86 0.0 0 0.0 3.6 12.9 13
03/12/2019 19:40 2.6 85 0.0 0 0.0 3.2 11.6 17
03/12/2019 19:50 2.7 85 0.0 0 0.0 2.9 10.5 21
03/12/2019 20:00 2.4 86 0.0 0 0.0 2.7 9.7 20
03/12/2019 20:10 2.3 87 0.0 0 0.0 2.6 9.3 23
03/12/2019 20:20 2.2 87 0.0 0 0.0 1.9 6.9 34
03/12/2019 20:30 2.1 88 0.0 0 0.0 2.1 7.5 27
03/12/2019 20:40 2.1 87 0.0 0 0.0 1.2 4.2 30
03/12/2019 20:50 1.9 88 0.0 0 0.0 0.9 3.3 19
03/12/2019 21:00 1.9 89 0.0 0 0.0 1.9 6.7 18
03/12/2019 21:10 1.9 88 0.0 0 0.0 2.6 9.3 12
03/12/2019 21:20 1.9 88 0.0 0 0.0 3.1 11.0 17
03/12/2019 21:30 1.7 88 0.0 0 0.0 3.2 11.6 14
03/12/2019 21:40 1.5 89 0.0 0 0.0 3.2 11.4 15
03/12/2019 21:50 1.4 89 0.0 0 0.0 3.1 11.1 15
03/12/2019 22:00 1.4 89 0.0 0 0.0 3.2 11.5 12
03/12/2019 22:10 1.4 90 0.0 0 0.0 3.6 13.1 10
03/12/2019 22:20 1.5 89 0.0 0 0.0 3.9 14.0 20
03/12/2019 22:30 1.5 89 0.0 0 0.0 3.6 12.8 18
03/12/2019 22:40 1.5 89 0.0 0 0.0 3.3 11.8 16
03/12/2019 22:50 1.3 89 0.0 0 0.0 3.7 13.2 19
03/12/2019 23:00 1.1 90 0.0 0 0.0 4.1 14.7 19
03/12/2019 23:10 1.2 90 0.0 0 0.0 3.7 13.1 17
03/12/2019 23:20 1.2 90 0.0 0 0.0 3.8 13.8 22
03/12/2019 23:30 1.3 90 0.0 0 0.0 3.4 12.3 16
03/12/2019 23:40 1.7 89 0.0 0 0.0 2.8 10.2 5
03/12/2019 23:50 1.5 88 0.0 0 0.0 3.0 10.8 10
Anterior Página 1 de 1 Siguiente

NOTA: Tipo de datos según el color:
   - Valores diarios o 10 minutos correctos
   - Valores diarios calculados a partir de un número de datos 10 minutos menor que 144 y mayor que 120, o de un número de datos semihorarios menor que 48 y mayor que 40 (caso de las estaciones de Riegos de Navarra y del MARM)
   - Valores diez minutos estimados


Contacto        Enlaces        Aviso legal